createdAt,value
2017-11-25T00:01:20.443Z,24.87
2017-11-25T00:03:47.970Z,25.70
2017-11-25T00:06:15.517Z,23.53
2017-11-25T00:08:43.075Z,23.53
2017-11-25T00:11:10.616Z,22.77
2017-11-25T00:13:38.190Z,21.80
2017-11-25T00:16:05.723Z,24.00
2017-11-25T00:18:33.240Z,23.13
2017-11-25T00:21:00.992Z,24.40
2017-11-25T00:23:28.511Z,25.57
2017-11-25T00:25:56.039Z,27.20
2017-11-25T00:28:23.638Z,23.30
2017-11-25T00:30:51.153Z,25.07
2017-11-25T00:33:18.676Z,24.97
2017-11-25T00:35:46.421Z,24.73
2017-11-25T00:38:13.947Z,23.73
2017-11-25T00:40:41.473Z,23.77
2017-11-25T00:43:09.036Z,22.70
2017-11-25T00:45:36.722Z,21.80
2017-11-25T00:48:04.241Z,21.80
2017-11-25T00:50:31.762Z,20.93
2017-11-25T00:52:59.355Z,22.03
2017-11-25T00:55:26.873Z,20.90
2017-11-25T00:57:54.390Z,19.40
2017-11-25T01:00:22.144Z,20.20
2017-11-25T01:02:49.661Z,20.73
2017-11-25T01:05:17.178Z,22.30
2017-11-25T01:07:44.760Z,23.40
2017-11-25T01:10:12.273Z,21.93
2017-11-25T01:12:39.792Z,21.40
2017-11-25T01:15:07.372Z,21.33
2017-11-25T01:17:34.899Z,23.90
2017-11-25T01:20:02.413Z,21.33
2017-11-25T01:22:29.965Z,20.80
2017-11-25T01:24:57.534Z,24.37
2017-11-25T01:27:25.068Z,23.83
2017-11-25T01:29:52.583Z,23.93
2017-11-25T01:32:20.158Z,22.90
2017-11-25T01:34:47.717Z,22.33
2017-11-25T01:37:15.251Z,24.10
2017-11-25T01:39:42.821Z,22.03
2017-11-25T01:42:10.339Z,23.47
2017-11-25T01:44:37.873Z,22.67
2017-11-25T01:47:05.635Z,23.20
2017-11-25T01:49:33.171Z,21.33
2017-11-25T01:52:00.688Z,22.57
2017-11-25T01:54:28.254Z,22.70
2017-11-25T01:56:55.790Z,23.00
2017-11-25T01:59:23.345Z,21.27
2017-11-25T02:01:50.907Z,22.50
2017-11-25T02:04:18.840Z,21.07
2017-11-25T02:06:46.381Z,21.57
2017-11-25T02:09:13.930Z,21.63
2017-11-25T02:11:41.675Z,21.23
2017-11-25T02:14:09.220Z,23.13
2017-11-25T02:16:36.761Z,23.53
2017-11-25T02:19:04.344Z,24.67
2017-11-25T02:21:31.881Z,23.97
2017-11-25T02:23:59.634Z,24.17
2017-11-25T02:26:27.169Z,22.73
2017-11-25T02:28:54.694Z,23.30
2017-11-25T02:31:22.466Z,24.33
2017-11-25T02:33:49.989Z,22.37
2017-11-25T02:36:17.558Z,21.13
2017-11-25T02:38:45.273Z,23.03
2017-11-25T02:41:12.814Z,21.20
2017-11-25T02:43:40.363Z,21.50
2017-11-25T02:46:07.960Z,24.90
2017-11-25T02:48:35.498Z,23.80
2017-11-25T02:51:03.046Z,24.30
2017-11-25T02:53:30.643Z,22.47
2017-11-25T02:55:58.190Z,24.50
2017-11-25T02:58:25.725Z,24.30
2017-11-25T03:00:58.131Z,24.30
2017-11-25T03:03:25.661Z,23.10
2017-11-25T03:05:53.220Z,25.77
2017-11-25T03:08:20.813Z,22.50
2017-11-25T03:10:48.365Z,24.10
2017-11-25T03:13:15.927Z,20.97
2017-11-25T03:15:43.483Z,22.57
2017-11-25T03:18:11.014Z,23.20
2017-11-25T03:20:38.725Z,23.57
2017-11-25T03:23:06.245Z,22.87
2017-11-25T03:25:33.781Z,22.37
2017-11-25T03:28:01.335Z,24.73
2017-11-25T03:30:28.867Z,26.63
2017-11-25T03:32:56.595Z,23.60
2017-11-25T03:35:24.135Z,24.70
2017-11-25T03:37:51.672Z,24.17
2017-11-25T03:40:19.254Z,23.87
2017-11-25T03:42:46.792Z,21.93
2017-11-25T03:45:14.304Z,21.50
2017-11-25T03:47:41.869Z,21.80
2017-11-25T03:50:09.385Z,21.73
2017-11-25T03:52:36.907Z,22.20
2017-11-25T03:55:04.469Z,23.50
2017-11-25T03:57:31.995Z,22.67
2017-11-25T03:59:59.583Z,22.50
2017-11-25T04:02:27.114Z,25.10
2017-11-25T04:04:54.629Z,23.37
2017-11-25T04:07:22.411Z,22.57
2017-11-25T04:09:49.938Z,30.87
2017-11-25T04:12:17.462Z,31.30
2017-11-25T04:14:45.054Z,49.50
2017-11-25T04:17:12.779Z,50.47
2017-11-25T04:19:40.320Z,49.43
2017-11-25T04:22:07.886Z,35.47
2017-11-25T04:24:35.440Z,33.50
2017-11-25T04:27:03.199Z,35.43
2017-11-25T04:29:30.751Z,31.60
2017-11-25T04:31:58.270Z,32.50
2017-11-25T04:34:25.997Z,27.60
2017-11-25T04:36:53.528Z,27.23
2017-11-25T04:39:21.081Z,25.50
2017-11-25T04:41:48.640Z,26.67
2017-11-25T04:44:16.161Z,25.27
2017-11-25T04:46:43.725Z,26.17
2017-11-25T04:49:11.260Z,28.97
2017-11-25T04:51:38.823Z,25.23
2017-11-25T04:54:06.379Z,25.47
2017-11-25T04:56:33.924Z,27.60
2017-11-25T04:59:01.493Z,27.30
2017-11-25T05:01:29.213Z,25.20
2017-11-25T05:03:56.786Z,28.00
2017-11-25T05:06:24.322Z,27.90
2017-11-25T05:08:51.897Z,31.93
2017-11-25T05:11:19.434Z,35.00
2017-11-25T05:13:46.969Z,28.73
2017-11-25T05:16:14.525Z,34.27
2017-11-25T05:18:42.055Z,27.70
2017-11-25T05:21:09.645Z,30.93
2017-11-25T05:23:37.213Z,35.40
2017-11-25T05:26:04.758Z,28.93
2017-11-25T05:28:32.470Z,29.83
2017-11-25T05:31:00.009Z,29.53
2017-11-25T05:33:27.542Z,29.07
2017-11-25T05:35:55.126Z,29.20
2017-11-25T05:38:22.661Z,25.43
2017-11-25T05:40:50.201Z,26.07
2017-11-25T05:43:17.777Z,24.47
2017-11-25T05:45:45.310Z,24.07
2017-11-25T05:48:12.834Z,25.50
2017-11-25T05:50:40.570Z,29.90
2017-11-25T05:53:08.110Z,28.20
2017-11-25T05:55:35.650Z,24.93
2017-11-25T05:58:03.202Z,26.87
2017-11-25T06:00:30.729Z,26.13
2017-11-25T06:02:58.331Z,26.60
2017-11-25T06:05:25.853Z,28.57
2017-11-25T06:07:53.390Z,26.70
2017-11-25T06:10:20.937Z,24.77
2017-11-25T06:12:48.454Z,26.40
2017-11-25T06:15:16.193Z,23.40
2017-11-25T06:17:43.723Z,23.60
2017-11-25T06:20:11.259Z,22.87
2017-11-25T06:22:38.839Z,23.60
2017-11-25T06:25:06.363Z,21.93
2017-11-25T06:27:33.917Z,21.33
2017-11-25T06:30:01.490Z,21.80
2017-11-25T06:32:29.030Z,22.70
2017-11-25T06:34:56.578Z,23.03
2017-11-25T06:37:24.253Z,21.80
2017-11-25T06:39:51.798Z,22.60
2017-11-25T06:42:19.347Z,20.20
2017-11-25T06:44:46.943Z,20.87
2017-11-25T06:47:14.647Z,24.67
2017-11-25T06:49:42.178Z,22.00
2017-11-25T06:52:09.734Z,22.83
2017-11-25T06:54:37.259Z,20.47
2017-11-25T06:57:04.820Z,22.23
2017-11-25T06:59:32.347Z,21.23
2017-11-25T07:01:59.911Z,20.63
2017-11-25T07:04:27.442Z,19.13
2017-11-25T07:06:55.025Z,19.50
2017-11-25T07:09:22.566Z,19.37
2017-11-25T07:11:50.148Z,18.83
2017-11-25T07:14:17.827Z,19.20
2017-11-25T07:16:45.382Z,19.63
2017-11-25T07:19:12.926Z,21.27
2017-11-25T07:21:40.666Z,22.23
2017-11-25T07:24:08.218Z,22.17
2017-11-25T07:26:35.753Z,21.40
2017-11-25T07:29:03.417Z,21.37
2017-11-25T07:31:30.949Z,20.47
2017-11-25T07:33:58.484Z,20.63
2017-11-25T07:36:26.608Z,19.87
2017-11-25T07:38:54.146Z,19.40
2017-11-25T07:41:21.690Z,20.83
2017-11-25T07:43:49.273Z,22.10
2017-11-25T07:46:16.812Z,20.60
2017-11-25T07:48:44.366Z,22.47
2017-11-25T07:51:11.953Z,21.13
2017-11-25T07:53:41.663Z,20.43
2017-11-25T07:56:09.194Z,20.57
2017-11-25T07:58:36.745Z,22.00
2017-11-25T08:01:04.286Z,21.70
2017-11-25T08:03:31.851Z,21.97
2017-11-25T08:05:59.391Z,19.60
2017-11-25T08:08:26.961Z,19.33
2017-11-25T08:10:54.489Z,20.43
2017-11-25T08:13:22.046Z,21.10
2017-11-25T08:15:49.621Z,20.53
2017-11-25T08:18:17.154Z,18.10
2017-11-25T08:20:44.686Z,17.60
2017-11-25T08:23:12.285Z,16.03
2017-11-25T08:25:39.834Z,15.17
2017-11-25T08:28:07.372Z,15.00
2017-11-25T08:30:34.932Z,13.50
2017-11-25T08:33:02.479Z,13.80
2017-11-25T08:35:30.064Z,14.70
2017-11-25T08:37:57.590Z,15.13
2017-11-25T08:40:25.119Z,13.97
2017-11-25T08:42:53.367Z,14.30
2017-11-25T08:45:20.906Z,13.97
2017-11-25T08:47:48.442Z,14.30
2017-11-25T08:50:15.990Z,13.57
2017-11-25T08:52:43.528Z,11.67
2017-11-25T08:55:11.079Z,11.73
2017-11-25T08:57:38.611Z,12.90
2017-11-25T09:00:06.166Z,14.90
2017-11-25T09:02:33.701Z,14.77
2017-11-25T09:05:01.389Z,12.00
2017-11-25T09:07:28.922Z,13.00
2017-11-25T09:09:56.447Z,16.43
2017-11-25T09:12:24.210Z,14.03
2017-11-25T09:14:51.768Z,13.90
2017-11-25T09:17:19.303Z,12.83
2017-11-25T09:19:46.870Z,12.23
2017-11-25T09:22:14.420Z,13.30
2017-11-25T09:24:41.969Z,13.40
2017-11-25T09:27:09.509Z,13.20
2017-11-25T09:29:37.080Z,12.57
2017-11-25T09:32:04.618Z,13.73
2017-11-25T09:34:32.134Z,14.73
2017-11-25T09:36:59.819Z,14.73
2017-11-25T09:39:27.343Z,12.80
2017-11-25T09:41:54.869Z,13.20
2017-11-25T09:44:22.419Z,15.07
2017-11-25T09:46:49.967Z,13.97
2017-11-25T09:49:17.626Z,13.83
2017-11-25T09:51:45.172Z,13.10
2017-11-25T09:54:12.698Z,13.20
2017-11-25T09:56:40.285Z,13.10
2017-11-25T09:59:07.823Z,13.17
2017-11-25T10:01:35.337Z,14.10
2017-11-25T10:04:02.891Z,12.30
2017-11-25T10:06:30.475Z,13.10
2017-11-25T10:08:57.999Z,13.07
2017-11-25T10:11:25.536Z,13.80
2017-11-25T10:13:53.225Z,13.80
2017-11-25T10:16:20.738Z,13.17
2017-11-25T10:18:48.260Z,12.50
2017-11-25T10:21:15.823Z,14.40
2017-11-25T10:23:43.407Z,15.10
2017-11-25T10:26:10.979Z,12.97
2017-11-25T10:28:38.502Z,13.00
2017-11-25T10:31:06.018Z,13.57
2017-11-25T10:33:33.565Z,12.83
2017-11-25T10:36:01.138Z,13.70
2017-11-25T10:38:28.661Z,14.33
2017-11-25T10:40:56.223Z,15.83
2017-11-25T10:43:23.772Z,15.33
2017-11-25T10:45:51.310Z,14.67
2017-11-25T10:48:18.866Z,15.97
2017-11-25T10:50:46.440Z,15.97
2017-11-25T10:53:14.009Z,15.90
2017-11-25T10:55:41.578Z,15.03
2017-11-25T10:58:09.110Z,15.07
2017-11-25T11:00:36.789Z,15.27
2017-11-25T11:03:04.300Z,15.73
2017-11-25T11:05:31.821Z,15.50
2017-11-25T11:07:59.362Z,17.10
2017-11-25T11:10:26.891Z,15.50
2017-11-25T11:12:54.478Z,14.73
2017-11-25T11:15:22.018Z,14.80
2017-11-25T11:17:49.542Z,16.00
2017-11-25T11:20:17.087Z,15.33
2017-11-25T11:22:44.679Z,15.17
2017-11-25T11:25:12.219Z,14.30
2017-11-25T11:27:39.738Z,16.10
2017-11-25T11:30:07.473Z,15.10
2017-11-25T11:32:34.999Z,16.90
2017-11-25T11:35:02.521Z,16.10
2017-11-25T11:37:30.080Z,13.43
2017-11-25T11:39:57.602Z,14.33
2017-11-25T11:42:25.341Z,14.60
2017-11-25T11:44:52.866Z,12.87
2017-11-25T11:47:20.399Z,13.50
2017-11-25T11:49:47.937Z,11.73
2017-11-25T11:52:16.559Z,11.20
2017-11-25T11:54:44.109Z,11.87
2017-11-25T11:57:11.660Z,14.77
2017-11-25T11:59:39.229Z,12.47
2017-11-25T12:02:06.757Z,9.80
2017-11-25T12:04:34.286Z,10.03
2017-11-25T12:07:01.980Z,10.30
2017-11-25T12:09:29.492Z,9.90
2017-11-25T12:11:57.019Z,8.77
2017-11-25T12:14:24.557Z,9.90
2017-11-25T12:16:52.160Z,9.67
2017-11-25T12:19:19.697Z,9.50
2017-11-25T12:21:47.214Z,9.70
2017-11-25T12:24:14.801Z,9.20
2017-11-25T12:26:42.332Z,7.80
2017-11-25T12:29:09.841Z,9.70
2017-11-25T12:31:37.378Z,8.50
2017-11-25T12:34:05.095Z,9.67
2017-11-25T12:36:32.605Z,9.50
2017-11-25T12:39:00.146Z,10.43
2017-11-25T12:41:27.814Z,10.97
2017-11-25T12:43:55.363Z,12.60
2017-11-25T12:46:22.916Z,10.53
2017-11-25T12:48:50.581Z,10.60
2017-11-25T12:51:18.127Z,10.10
2017-11-25T12:53:46.693Z,10.70
2017-11-25T12:56:14.298Z,10.37
2017-11-25T12:58:41.827Z,8.80
2017-11-25T13:01:09.353Z,7.97
2017-11-25T13:03:36.906Z,10.03
2017-11-25T13:06:04.417Z,8.93
2017-11-25T13:08:32.133Z,8.73
2017-11-25T13:10:59.654Z,8.90
2017-11-25T13:13:27.173Z,7.93
2017-11-25T13:15:54.733Z,8.87
2017-11-25T13:18:22.245Z,9.80
2017-11-25T13:20:49.757Z,8.23
2017-11-25T13:23:17.329Z,7.57
2017-11-25T13:25:44.841Z,8.70
2017-11-25T13:28:12.368Z,9.43
2017-11-25T13:30:39.913Z,8.73
2017-11-25T13:33:07.440Z,7.90
2017-11-25T13:35:35.107Z,8.23
2017-11-25T13:38:02.642Z,8.57
2017-11-25T13:40:30.166Z,7.60
2017-11-25T13:42:57.725Z,8.20
2017-11-25T13:45:25.285Z,9.00
2017-11-25T13:47:52.814Z,10.63
2017-11-25T13:50:20.348Z,11.67
2017-11-25T13:52:47.927Z,13.90
2017-11-25T13:55:15.442Z,9.70
2017-11-25T13:57:43.002Z,10.70
2017-11-25T14:00:10.543Z,5.20
2017-11-25T14:02:38.086Z,4.03
2017-11-25T14:05:05.653Z,2.90
2017-11-25T14:07:33.190Z,3.93
2017-11-25T14:10:00.754Z,2.13
2017-11-25T14:12:28.330Z,1.83
2017-11-25T14:14:55.875Z,1.60
2017-11-25T14:17:23.395Z,1.83
2017-11-25T14:19:50.938Z,2.20
2017-11-25T14:22:18.498Z,2.20
2017-11-25T14:24:46.026Z,1.43
2017-11-25T14:27:13.562Z,3.93
2017-11-25T14:29:41.227Z,4.50
2017-11-25T14:32:08.733Z,2.20
2017-11-25T14:34:36.248Z,1.60
2017-11-25T14:37:03.822Z,1.80
2017-11-25T14:39:31.330Z,2.00
2017-11-25T14:41:58.849Z,1.57
2017-11-25T14:44:26.413Z,2.10
2017-11-25T14:46:53.929Z,2.20
2017-11-25T14:49:21.454Z,2.40
2017-11-25T14:51:48.986Z,2.80
2017-11-25T14:54:16.642Z,2.80
2017-11-25T14:56:44.153Z,2.80
2017-11-25T14:59:11.661Z,2.67
2017-11-25T15:01:39.254Z,2.13
2017-11-25T15:04:06.773Z,2.23
2017-11-25T15:06:34.295Z,2.10
2017-11-25T15:09:01.835Z,1.70
2017-11-25T15:11:29.398Z,2.23
2017-11-25T15:13:56.923Z,2.00
2017-11-25T15:16:24.441Z,2.40
2017-11-25T15:18:52.205Z,2.07
2017-11-25T15:21:19.749Z,2.10
2017-11-25T15:23:47.266Z,1.90
2017-11-25T15:26:14.811Z,2.30
2017-11-25T15:28:42.395Z,3.90
2017-11-25T15:31:09.933Z,4.80
2017-11-25T15:33:37.678Z,3.70
2017-11-25T15:36:05.235Z,3.70
2017-11-25T15:38:32.781Z,3.70
2017-11-25T15:41:00.539Z,2.90
2017-11-25T15:43:28.069Z,3.60
2017-11-25T15:45:55.577Z,3.20
2017-11-25T15:48:23.134Z,3.90
2017-11-25T15:50:50.692Z,4.50
2017-11-25T15:53:18.278Z,6.10
2017-11-25T15:55:45.809Z,5.90
2017-11-25T15:58:13.334Z,4.63
2017-11-25T16:00:40.940Z,5.90
2017-11-25T16:03:08.461Z,6.10
2017-11-25T16:05:35.976Z,4.80
2017-11-25T16:08:03.539Z,5.60
2017-11-25T16:10:31.080Z,5.10
2017-11-25T16:12:58.589Z,5.57
2017-11-25T16:15:26.155Z,5.07
2017-11-25T16:17:53.666Z,6.07
2017-11-25T16:20:21.203Z,5.63
2017-11-25T16:22:48.870Z,5.10
2017-11-25T16:25:16.393Z,5.67
2017-11-25T16:27:43.919Z,6.17
2017-11-25T16:30:11.513Z,6.13
2017-11-25T16:32:39.046Z,5.27
2017-11-25T16:35:06.568Z,5.50
2017-11-25T16:37:34.166Z,6.57
2017-11-25T16:40:01.690Z,6.40
2017-11-25T16:42:29.205Z,6.20
2017-11-25T16:44:56.922Z,6.23
2017-11-25T16:47:24.438Z,6.57
2017-11-25T16:49:51.971Z,6.63
2017-11-25T16:52:19.550Z,5.80
2017-11-25T16:54:47.064Z,5.30
2017-11-25T16:57:14.599Z,6.30
2017-11-25T16:59:42.148Z,5.90
2017-11-25T17:02:09.688Z,6.30
2017-11-25T17:04:37.216Z,5.90
2017-11-25T17:07:04.757Z,5.03
2017-11-25T17:09:32.278Z,5.00
2017-11-25T17:11:59.866Z,5.27
2017-11-25T17:14:27.396Z,5.77
2017-11-25T17:16:54.911Z,6.00
2017-11-25T17:19:22.479Z,4.57
2017-11-25T17:21:49.993Z,5.10
2017-11-25T17:24:17.507Z,4.90
2017-11-25T17:26:45.047Z,5.30
2017-11-25T17:29:12.622Z,6.40
2017-11-25T17:31:40.143Z,7.13
2017-11-25T17:34:07.674Z,8.30
2017-11-25T17:36:35.214Z,5.30
2017-11-25T17:39:02.730Z,4.80
2017-11-25T17:41:30.302Z,6.07
2017-11-25T17:43:57.825Z,4.93
2017-11-25T17:46:25.393Z,5.00
2017-11-25T17:48:52.916Z,5.20
2017-11-25T17:51:20.420Z,5.13
2017-11-25T17:53:47.957Z,4.87
2017-11-25T17:56:15.470Z,5.57
2017-11-25T17:58:43.027Z,5.53
2017-11-25T18:01:10.551Z,7.90
2017-11-25T18:03:38.101Z,6.00
2017-11-25T18:06:05.618Z,7.37
2017-11-25T18:08:33.206Z,6.13
2017-11-25T18:11:00.725Z,7.80
2017-11-25T18:13:28.278Z,7.20
2017-11-25T18:15:55.862Z,7.00
2017-11-25T18:18:23.391Z,5.30
2017-11-25T18:20:50.920Z,5.73
2017-11-25T18:23:18.466Z,5.70
2017-11-25T18:25:46.197Z,5.47
2017-11-25T18:28:13.726Z,5.40
2017-11-25T18:30:41.251Z,6.80
2017-11-25T18:33:08.792Z,4.83
2017-11-25T18:35:36.316Z,6.50
2017-11-25T18:38:03.882Z,6.23
2017-11-25T18:40:31.421Z,5.50
2017-11-25T18:42:59.090Z,7.00
2017-11-25T18:45:26.626Z,5.23
2017-11-25T18:47:54.158Z,4.73
2017-11-25T18:50:21.689Z,6.50
2017-11-25T18:52:49.244Z,5.40
2017-11-25T18:55:16.754Z,5.60
2017-11-25T18:57:44.283Z,5.60
2017-11-25T19:00:11.863Z,7.10
2017-11-25T19:02:39.425Z,6.57
2017-11-25T19:05:06.952Z,6.90
2017-11-25T19:07:34.475Z,7.70
2017-11-25T19:10:02.018Z,7.20
2017-11-25T19:12:29.673Z,7.80
2017-11-25T19:14:57.180Z,6.47
2017-11-25T19:17:24.693Z,7.97
2017-11-25T19:19:52.234Z,8.20
2017-11-25T19:22:19.758Z,7.50
2017-11-25T19:24:47.302Z,7.50
2017-11-25T19:27:14.821Z,7.67
2017-11-25T19:29:42.561Z,6.10
2017-11-25T19:32:10.079Z,6.70
2017-11-25T19:34:37.593Z,6.27
2017-11-25T19:37:05.146Z,7.20
2017-11-25T19:39:32.789Z,6.33
2017-11-25T19:42:00.307Z,8.00
2017-11-25T19:44:27.850Z,6.77
2017-11-25T19:46:55.548Z,8.10
2017-11-25T19:49:23.079Z,7.37
2017-11-25T19:51:50.597Z,6.57
2017-11-25T19:54:18.294Z,7.97
2017-11-25T19:56:45.842Z,7.30
2017-11-25T19:59:13.372Z,7.87
2017-11-25T20:01:40.909Z,6.40
2017-11-25T20:04:08.424Z,6.80
2017-11-25T20:06:36.007Z,7.67
2017-11-25T20:09:03.559Z,6.57
2017-11-25T20:11:31.082Z,6.33
2017-11-25T20:13:58.664Z,7.40
2017-11-25T20:16:26.186Z,6.77
2017-11-25T20:18:53.705Z,7.63
2017-11-25T20:21:21.280Z,7.83
2017-11-25T20:23:48.803Z,7.90
2017-11-25T20:26:16.331Z,7.20
2017-11-25T20:28:44.013Z,8.97
2017-11-25T20:31:11.534Z,7.40
2017-11-25T20:33:39.055Z,7.77
2017-11-25T20:36:06.601Z,7.57
2017-11-25T20:38:34.146Z,7.70
2017-11-25T20:41:01.702Z,7.37
2017-11-25T20:43:29.233Z,8.20
2017-11-25T20:45:56.785Z,10.00
2017-11-25T20:48:24.297Z,7.37
2017-11-25T20:50:51.827Z,8.07
2017-11-25T20:53:19.415Z,8.10
2017-11-25T20:55:46.937Z,9.13
2017-11-25T20:58:14.440Z,9.67
2017-11-25T21:00:42.163Z,9.10
2017-11-25T21:03:09.682Z,9.67
2017-11-25T21:05:37.198Z,8.40
2017-11-25T21:08:04.759Z,9.97
2017-11-25T21:10:32.283Z,8.90
2017-11-25T21:12:59.803Z,9.57
2017-11-25T21:15:27.373Z,9.83
2017-11-25T21:17:54.896Z,9.50
2017-11-25T21:20:22.427Z,9.07
2017-11-25T21:22:50.232Z,9.80
2017-11-25T21:25:17.757Z,9.23
2017-11-25T21:27:45.282Z,8.97
2017-11-25T21:30:12.839Z,9.60
2017-11-25T21:32:40.376Z,9.47
2017-11-25T21:35:07.910Z,8.97
2017-11-25T21:37:35.462Z,9.80
2017-11-25T21:40:02.988Z,9.50
2017-11-25T21:42:30.542Z,9.50
2017-11-25T21:44:58.059Z,8.20
2017-11-25T21:47:25.594Z,8.53
2017-11-25T21:49:53.178Z,10.27
2017-11-25T21:52:20.701Z,8.80
2017-11-25T21:54:48.220Z,9.40
2017-11-25T21:57:15.937Z,7.60
2017-11-25T21:59:43.459Z,9.63
2017-11-25T22:02:10.977Z,9.23
2017-11-25T22:04:38.545Z,8.63
2017-11-25T22:07:06.071Z,9.07
2017-11-25T22:09:33.595Z,8.33
2017-11-25T22:12:01.142Z,9.40
2017-11-25T22:14:28.691Z,9.43
2017-11-25T22:16:56.206Z,9.30
2017-11-25T22:19:23.745Z,11.00
2017-11-25T22:21:51.253Z,8.87
2017-11-25T22:24:18.830Z,9.97
2017-11-25T22:26:46.380Z,8.90
2017-11-25T22:29:13.901Z,8.93
2017-11-25T22:31:41.454Z,8.60
2017-11-25T22:34:09.014Z,9.60
2017-11-25T22:36:36.597Z,8.83
2017-11-25T22:39:04.149Z,7.60
2017-11-25T22:41:31.666Z,8.53
2017-11-25T22:43:59.202Z,8.33
2017-11-25T22:46:26.738Z,8.07
2017-11-25T22:48:54.262Z,8.33
2017-11-25T22:51:22.020Z,8.20
2017-11-25T22:53:49.563Z,8.53
2017-11-25T22:56:17.077Z,8.87
2017-11-25T22:58:44.627Z,8.20
2017-11-25T23:01:12.147Z,8.60
2017-11-25T23:03:39.707Z,8.90
2017-11-25T23:06:11.246Z,9.03
2017-11-25T23:08:38.830Z,9.20
2017-11-25T23:11:06.376Z,9.67
2017-11-25T23:13:33.895Z,9.07
2017-11-25T23:16:01.466Z,9.50
2017-11-25T23:18:28.991Z,8.60
2017-11-25T23:20:56.503Z,8.37
2017-11-25T23:23:24.072Z,7.60
2017-11-25T23:25:51.585Z,8.00
2017-11-25T23:28:19.098Z,9.23
2017-11-25T23:30:46.634Z,8.83
2017-11-25T23:33:14.150Z,9.80
2017-11-25T23:35:41.714Z,9.20
2017-11-25T23:38:09.248Z,10.07
2017-11-25T23:40:36.790Z,9.80
2017-11-25T23:43:04.535Z,9.33
2017-11-25T23:45:32.054Z,10.60
2017-11-25T23:47:59.570Z,9.90
2017-11-25T23:50:27.105Z,10.30
2017-11-25T23:52:54.626Z,10.40
2017-11-25T23:55:22.164Z,11.30
2017-11-25T23:57:49.685Z,12.07
